Maldives Meteorological Service

METAR

Station
VRMM
METAR VRMM 230000Z 23007KT 9999 FEW018 BKN270 28/25 Q1009 NOSIG=
VRMH
METAR VRMH 230000Z 28010KT 9999 FEW018TCU SCT270 28/26 Q1008=
VRMK
METAR VRMK 230000Z VRB01KT 9999 FEW019 SCT270 26/24 Q1009=
VRMT
METAR VRMT 230000Z VRB01KT 9999 FEW018TCU BKN270 25/24 Q1009=
VRMG
METAR VRMG 230000Z 24003KT 9999 FEW018 BKN260 27/24 Q1009 NOSIG=
Last Updated : 2018-06-23 05:02:17

SPECI

Station
VRMM
VRMH
VRMK
VRMT
VRMG
Last Updated : 2018-06-23 05:02:17